Terminal Aerodrome Forecast
Issued by NWS Lake Charles, LA

Home | Current Version | Previous Version | Text Only | Print | Product List | Glossary On
Versions: 1 2 3 4 5 6 7 8 9 10 11 12 13 14 15 16
000
FTUS44 KLCH 030905 AAB
TAFLCH
TAF AMD
KLCH 030905Z 0309/0406 09005KT P6SM VCSH SCT003 SCT025
      TEMPO 0309/0313 4SM BR BKN003
     FM031400 15009KT P6SM VCTS SCT035CB PROB30 0318/0324 3SM TSRA
      OVC025CB=

USA.gov is the U.S. government's official web portal to all federal, state and local government web resources and services.